Time;durP1;ratioP1;P1;durP2;ratioP2;P2;SDS_P1;SDS_P2;PMS_P1;PMS_P2;Temp;Humidity;BMP_temperature;BMP_pressure;BME280_temperature;BME280_humidity;BME280_pressure;Samples;Min_cycle;Max_cycle;Signal;HPM_P1;HPM_P2
2022/12/23 00:01:57;;;;;;;58.98;42.23;;;19.40;88.90;;;;;;1814768;77;21061;-83
2022/12/23 00:04:28;;;;;;;56.55;41.70;;;19.30;88.80;;;;;;1822531;77;21132;-82
2022/12/23 00:07:01;;;;;;;53.08;41.18;;;19.40;88.80;;;;;;1833186;77;21107;-82
2022/12/23 00:09:32;;;;;;;52.83;39.58;;;19.40;88.70;;;;;;1819320;77;21064;-82
2022/12/23 00:15:07;;;;;;;65.10;46.23;;;19.40;88.60;;;;;;1779907;79;21139;-82
2022/12/23 00:17:45;;;;;;;66.62;48.42;;;19.40;88.50;;;;;;1751119;81;21180;-80
2022/12/23 00:20:18;;;;;;;76.35;54.35;;;19.40;88.60;;;;;;1758150;80;21150;-81
2022/12/23 00:23:07;;;;;;;75.40;55.73;;;19.40;88.70;;;;;;1791051;78;21193;-83
2022/12/23 00:25:56;;;;;;;70.17;49.98;;;19.40;88.70;;;;;;1800914;79;21139;-83
2022/12/23 00:28:28;;;;;;;73.78;50.65;;;19.40;88.40;;;;;;1851401;75;21060;-84
2022/12/23 00:31:05;;;;;;;61.48;46.50;;;19.40;88.30;;;;;;1835248;76;21453;-82
2022/12/23 00:33:38;;;;;;;64.92;47.30;;;19.40;88.00;;;;;;1878897;75;21657;-84
2022/12/23 00:36:15;;;;;;;55.33;41.63;;;19.40;87.90;;;;;;1880680;75;21087;-82
2022/12/23 00:44:23;;;;;;;66.50;45.75;;;19.40;87.40;;;;;;1833714;76;21162;-82
2022/12/23 00:46:54;;;;;;;54.93;43.08;;;19.50;87.30;;;;;;1784120;78;21504;-82
2022/12/23 00:49:43;;;;;;;85.72;41.70;;;19.50;86.90;;;;;;1860552;74;21183;-82
2022/12/23 00:52:15;;;;;;;69.97;42.03;;;19.50;86.50;;;;;;1860442;75;21069;-82
2022/12/23 00:54:52;;;;;;;55.90;39.65;;;19.60;86.20;;;;;;1836747;76;21233;-83
2022/12/23 00:57:24;;;;;;;56.08;39.13;;;19.60;87.20;;;;;;1872298;75;21136;-83
2022/12/23 00:59:59;;;;;;;53.83;40.63;;;19.60;86.00;;;;;;1871191;75;21143;-82
2022/12/23 01:08:14;;;;;;;51.23;38.95;;;19.80;85.50;;;;;;1868151;74;21130;-84
2022/12/23 01:10:49;;;;;;;55.70;40.30;;;19.80;85.00;;;;;;1865878;74;21178;-84
2022/12/23 01:13:17;;;;;;;70.50;40.25;;;19.90;84.90;;;;;;1871899;75;21156;-70
2022/12/23 01:15:56;;;;;;;54.33;37.25;;;19.90;84.70;;;;;;1869265;75;21926;-70
2022/12/23 01:18:28;;;;;;;53.50;37.85;;;20.00;84.40;;;;;;1833788;75;21477;-70
2022/12/23 01:21:07;;;;;;;54.65;40.60;;;20.00;83.90;;;;;;1856880;75;21190;-70
2022/12/23 01:23:38;;;;;;;50.63;39.38;;;20.00;84.10;;;;;;1828495;76;21190;-69
2022/12/23 01:26:09;;;;;;;49.03;37.13;;;20.00;84.10;;;;;;1863946;74;21173;-70
2022/12/23 01:28:40;;;;;;;50.85;37.65;;;20.10;84.10;;;;;;1869151;74;21186;-70
2022/12/23 01:31:11;;;;;;;52.55;37.80;;;20.10;84.10;;;;;;1861392;75;21132;-71
2022/12/23 01:33:42;;;;;;;52.27;38.40;;;20.20;84.10;;;;;;1829076;76;21115;-72
2022/12/23 01:36:17;;;;;;;50.23;38.38;;;20.30;84.10;;;;;;1875849;74;21108;-72
2022/12/23 01:38:51;;;;;;;48.42;35.70;;;20.30;83.70;;;;;;1821883;76;21599;-68
2022/12/23 01:44:55;;;;;;;49.27;35.45;;;20.40;82.30;;;;;;1824502;76;21786;-69
2022/12/23 01:47:35;;;;;;;49.27;35.58;;;20.50;82.10;;;;;;1863124;74;21158;-69
2022/12/23 01:50:24;;;;;;;48.15;37.25;;;20.60;81.90;;;;;;1863763;74;21639;-69
2022/12/23 01:53:04;;;;;;;48.57;35.53;;;20.70;81.70;;;;;;1860363;74;21155;-70
2022/12/23 01:55:53;;;;;;;52.15;38.50;;;20.70;81.50;;;;;;1854452;75;21145;-70
2022/12/23 01:58:29;;;;;;;50.55;37.78;;;20.80;81.30;;;;;;1867668;75;21587;-70
2022/12/23 02:03:52;;;;;;;46.63;35.25;;;20.90;81.10;;;;;;1823349;77;21128;-69
2022/12/23 02:09:32;;;;;;;46.05;33.18;;;21.00;79.50;;;;;;1861565;74;21217;-69
2022/12/23 02:12:11;;;;;;;47.38;33.78;;;21.10;79.10;;;;;;1854788;75;21161;-70
2022/12/23 02:17:57;;;;;;;41.30;32.67;;;21.20;78.90;;;;;;1858375;74;21155;-70
2022/12/23 02:20:50;;;;;;;44.93;33.80;;;21.30;79.10;;;;;;1862662;74;21628;-68
2022/12/23 02:23:57;;;;;;;47.08;33.28;;;21.30;78.50;;;;;;1867347;74;21716;-69
2022/12/23 02:27:03;;;;;;;43.33;31.80;;;21.40;78.10;;;;;;1874573;74;21096;-70
2022/12/23 02:29:44;;;;;;;;;;;21.50;78.10;;;;;;1905785;74;21185;-70
2022/12/23 02:32:26;;;;;;;43.15;33.65;;;21.50;78.70;;;;;;1848690;75;20185;-71
2022/12/23 02:35:09;;;;;;;45.58;32.42;;;21.60;78.30;;;;;;1829761;77;21754;-70
2022/12/23 02:37:48;;;;;;;41.15;32.17;;;21.60;77.90;;;;;;1863159;76;21058;-70
2022/12/23 02:40:22;;;;;;;45.88;33.55;;;21.60;77.20;;;;;;1852726;76;21095;-68
2022/12/23 02:42:58;;;;;;;45.05;33.28;;;21.70;77.40;;;;;;1812780;77;21290;-71
2022/12/23 02:45:38;;;;;;;43.92;32.35;;;21.70;77.20;;;;;;1857636;75;21536;-69
2022/12/23 02:48:34;;;;;;;41.02;30.92;;;21.80;76.60;;;;;;1891810;74;21177;-69
2022/12/23 02:51:12;;;;;;;42.90;32.37;;;21.80;77.10;;;;;;1881655;74;21216;-69
2022/12/23 02:53:43;;;;;;;47.03;31.17;;;21.90;76.40;;;;;;1891194;74;21173;-67
2022/12/23 02:56:23;;;;;;;42.88;32.38;;;22.00;76.50;;;;;;1876922;74;21203;-69
2022/12/23 02:59:10;;;;;;;43.28;31.15;;;22.00;75.70;;;;;;1874364;74;21175;-70
2022/12/23 03:02:04;;;;;;;39.58;30.45;;;22.10;75.50;;;;;;1882324;74;21256;-71
2022/12/23 03:04:53;;;;;;;41.63;31.93;;;22.10;75.20;;;;;;1882207;74;21617;-69
2022/12/23 03:07:29;;;;;;;40.78;30.00;;;22.20;75.50;;;;;;1887358;74;21154;-69
2022/12/23 03:10:23;;;;;;;43.48;29.85;;;22.20;75.50;;;;;;1895392;74;21229;-68
2022/12/23 03:13:39;;;;;;;40.20;30.40;;;22.30;75.20;;;;;;1850754;75;21099;-71
2022/12/23 03:16:25;;;;;;;38.70;29.57;;;22.40;74.80;;;;;;1766048;80;22214;-69
2022/12/23 03:18:59;;;;;;;37.23;28.73;;;22.50;75.20;;;;;;1867170;74;21248;-69
2022/12/23 03:21:48;;;;;;;40.75;30.40;;;22.60;74.80;;;;;;1890666;74;21087;-69
2022/12/23 03:24:48;;;;;;;42.48;29.92;;;22.60;73.60;;;;;;1886896;74;21068;-70
2022/12/23 03:27:37;;;;;;;43.95;29.90;;;22.70;73.40;;;;;;1896225;74;21587;-69
2022/12/23 03:30:13;;;;;;;40.78;30.37;;;22.70;73.90;;;;;;1875213;75;21111;-69
2022/12/23 03:32:52;;;;;;;39.98;28.38;;;22.80;73.50;;;;;;1866446;74;21230;-69
2022/12/23 03:35:22;;;;;;;37.83;28.47;;;23.00;73.80;;;;;;1875386;74;21210;-70
2022/12/23 03:38:00;;;;;;;35.95;27.77;;;23.00;73.60;;;;;;1891297;73;21162;-69
2022/12/23 03:40:43;;;;;;;34.65;26.25;;;23.10;72.40;;;;;;1865670;74;21151;-70
2022/12/23 03:43:22;;;;;;;32.88;26.37;;;23.20;71.70;;;;;;1872196;74;21141;-68
2022/12/23 03:46:02;;;;;;;32.50;25.62;;;23.30;71.50;;;;;;1866445;75;21119;-68
2022/12/23 03:48:38;;;;;;;31.20;24.82;;;23.30;70.80;;;;;;1871235;75;21080;-70
2022/12/23 03:51:19;;;;;;;36.98;26.25;;;23.40;69.50;;;;;;1885142;74;21135;-70
2022/12/23 03:53:56;;;;;;;34.58;23.62;;;23.50;69.60;;;;;;1842031;76;21731;-70
2022/12/23 03:56:34;;;;;;;33.38;24.85;;;23.60;69.30;;;;;;1887332;74;21218;-71
2022/12/23 03:59:17;;;;;;;35.17;25.05;;;23.70;69.70;;;;;;1883962;74;21638;-70
2022/12/23 04:02:20;;;;;;;29.45;22.58;;;23.80;69.10;;;;;;1879076;74;21158;-69
2022/12/23 04:05:12;;;;;;;30.70;23.92;;;23.90;68.10;;;;;;1881762;75;21540;-69
2022/12/23 04:08:20;;;;;;;28.50;21.25;;;24.00;68.10;;;;;;1837301;76;21154;-69
2022/12/23 04:10:50;;;;;;;26.80;20.80;;;24.20;67.00;;;;;;1885982;74;21080;-70
2022/12/23 04:13:24;;;;;;;32.95;22.65;;;24.30;65.90;;;;;;1874542;75;21207;-70
2022/12/23 04:15:56;;;;;;;27.62;21.23;;;24.40;65.00;;;;;;1877701;74;21140;-69
2022/12/23 04:18:28;;;;;;;26.95;22.13;;;24.60;64.40;;;;;;1872868;74;21080;-68
2022/12/23 04:21:00;;;;;;;31.80;21.37;;;24.70;64.20;;;;;;1887895;74;21127;-69
2022/12/23 04:23:33;;;;;;;27.32;20.70;;;24.70;64.40;;;;;;1892621;75;21539;-68
2022/12/23 04:26:05;;;;;;;26.90;20.17;;;24.80;64.10;;;;;;1881957;74;21084;-69
2022/12/23 04:28:36;;;;;;;25.80;19.35;;;24.90;63.40;;;;;;1844718;76;21229;-70
2022/12/23 04:31:08;;;;;;;26.30;19.67;;;25.10;64.30;;;;;;1881205;74;21696;-69
2022/12/23 04:33:39;;;;;;;27.65;19.48;;;25.20;63.10;;;;;;1846648;76;21069;-70
2022/12/23 04:36:12;;;;;;;25.68;19.48;;;25.30;62.10;;;;;;1869350;75;21151;-69
2022/12/23 04:38:44;;;;;;;27.00;20.55;;;25.50;62.30;;;;;;1841275;76;21060;-69
2022/12/23 04:41:17;;;;;;;29.57;20.90;;;25.50;61.60;;;;;;1869879;75;21175;-69
2022/12/23 04:43:48;;;;;;;21.80;18.12;;;25.70;61.10;;;;;;1872925;75;21217;-69
2022/12/23 04:46:23;;;;;;;27.40;23.50;;;25.70;61.80;;;;;;1835451;76;21084;-69
2022/12/23 04:48:58;;;;;;;28.15;20.02;;;25.80;61.70;;;;;;1869418;75;21570;-68
2022/12/23 04:51:31;;;;;;;26.30;19.55;;;25.90;60.20;;;;;;1876988;74;21120;-70
2022/12/23 04:54:02;;;;;;;29.20;20.65;;;25.90;61.90;;;;;;1863510;75;21165;-71
2022/12/23 04:56:35;;;;;;;23.75;20.90;;;26.00;59.60;;;;;;1891140;74;21256;-71
2022/12/23 04:59:11;;;;;;;26.62;19.87;;;26.00;60.00;;;;;;1887301;74;21374;-70
2022/12/23 05:01:47;;;;;;;25.05;19.42;;;26.10;61.00;;;;;;1877217;74;21163;-69
2022/12/23 05:04:15;;;;;;;24.80;20.10;;;26.20;60.80;;;;;;1842823;76;21158;-70
2022/12/23 05:06:48;;;;;;;27.77;20.88;;;26.20;60.40;;;;;;1891620;74;21112;-70
2022/12/23 05:09:20;;;;;;;27.93;21.12;;;26.30;58.80;;;;;;1884972;74;21134;-70
2022/12/23 05:11:51;;;;;;;29.72;22.05;;;26.40;59.30;;;;;;1880212;74;21294;-72
2022/12/23 05:14:24;;;;;;;26.73;19.85;;;26.50;59.60;;;;;;1883317;74;21123;-72
2022/12/23 05:16:55;;;;;;;30.68;20.75;;;26.60;59.60;;;;;;1871359;75;21163;-71
2022/12/23 05:19:27;;;;;;;27.05;19.95;;;26.70;58.00;;;;;;1887045;75;21232;-71
2022/12/23 05:22:04;;;;;;;25.35;18.98;;;26.80;57.50;;;;;;1877812;74;21156;-70
2022/12/23 05:24:35;;;;;;;26.62;19.85;;;26.80;57.50;;;;;;1843154;76;21238;-70
2022/12/23 05:27:08;;;;;;;27.30;20.02;;;26.90;57.90;;;;;;1879087;74;21634;-70
2022/12/23 05:29:40;;;;;;;26.68;19.55;;;27.00;56.80;;;;;;1871714;75;21166;-70
2022/12/23 05:32:11;;;;;;;26.27;19.80;;;27.00;56.70;;;;;;1868165;75;21624;-68
2022/12/23 05:35:00;;;;;;;23.75;19.65;;;27.10;56.10;;;;;;1875671;75;21126;-73
2022/12/23 05:37:31;;;;;;;27.75;19.48;;;27.20;56.90;;;;;;1839744;76;21155;-69
2022/12/23 05:40:03;;;;;;;25.90;19.90;;;27.10;58.50;;;;;;1878007;75;21225;-70
2022/12/23 05:42:34;;;;;;;28.42;19.75;;;27.20;56.30;;;;;;1880339;75;21272;-71
2022/12/23 05:45:07;;;;;;;28.02;19.30;;;27.30;55.30;;;;;;1881919;74;21127;-71
2022/12/23 05:47:38;;;;;;;23.22;18.25;;;27.40;56.10;;;;;;1839751;76;21635;-70
2022/12/23 05:50:10;;;;;;;22.13;18.17;;;27.50;54.60;;;;;;1879335;74;21115;-70
2022/12/23 05:52:42;;;;;;;25.75;18.65;;;27.60;56.50;;;;;;1873857;74;21748;-69
2022/12/23 05:55:16;;;;;;;26.65;18.27;;;27.60;55.30;;;;;;1872844;75;21100;-68
2022/12/23 05:57:47;;;;;;;26.68;17.60;;;27.50;53.60;;;;;;1812391;77;21107;-69
2022/12/23 06:00:20;;;;;;;22.67;17.52;;;27.50;55.00;;;;;;1869929;75;21634;-70
2022/12/23 06:02:52;;;;;;;30.50;18.92;;;27.40;55.30;;;;;;1839748;76;21177;-71
2022/12/23 06:05:23;;;;;;;22.22;17.52;;;27.50;53.70;;;;;;1886291;74;21119;-70
2022/12/23 06:07:54;;;;;;;26.05;18.70;;;27.60;55.40;;;;;;1857521;75;21212;-69
2022/12/23 06:10:38;;;;;;;23.38;17.32;;;27.70;55.00;;;;;;1879046;74;21131;-70
2022/12/23 06:13:13;;;;;;;25.72;17.87;;;27.60;54.40;;;;;;1840816;76;21568;-71
2022/12/23 06:15:45;;;;;;;24.32;16.87;;;27.70;53.90;;;;;;1878567;75;21193;-71
2022/12/23 06:18:16;;;;;;;22.95;17.62;;;27.70;53.60;;;;;;1877676;74;21092;-70
2022/12/23 06:20:48;;;;;;;22.10;17.02;;;27.70;53.70;;;;;;1838003;76;21738;-69
2022/12/23 06:23:21;;;;;;;24.70;16.93;;;27.60;54.50;;;;;;1871478;74;21561;-72
2022/12/23 06:26:02;;;;;;;25.02;17.35;;;27.60;54.90;;;;;;1839595;76;21146;-69
2022/12/23 06:28:33;;;;;;;26.48;18.15;;;27.50;55.00;;;;;;1876369;74;21076;-71
2022/12/23 06:31:07;;;;;;;25.80;17.82;;;27.60;53.60;;;;;;1836923;75;21186;-71
2022/12/23 06:33:38;;;;;;;22.20;16.87;;;27.60;54.80;;;;;;1864335;75;21785;-71
2022/12/23 06:36:13;;;;;;;25.88;17.60;;;27.70;53.70;;;;;;1863308;75;21091;-71
2022/12/23 06:38:47;;;;;;;24.40;17.60;;;27.80;53.50;;;;;;1827662;76;21716;-72
2022/12/23 06:41:23;;;;;;;22.95;16.97;;;27.80;53.40;;;;;;1858393;75;21689;-71
2022/12/23 06:43:52;;;;;;;21.75;17.00;;;27.80;53.70;;;;;;1860026;76;21253;-71
2022/12/23 06:46:23;;;;;;;25.35;17.27;;;27.80;54.20;;;;;;1861864;75;21190;-72
2022/12/23 06:48:55;;;;;;;22.10;16.93;;;27.70;54.70;;;;;;1861157;75;21859;-71
2022/12/23 06:51:27;;;;;;;22.98;17.65;;;27.80;53.80;;;;;;1829528;76;21307;-70
2022/12/23 06:54:00;;;;;;;29.07;17.15;;;27.70;53.90;;;;;;1861520;75;21151;-69
2022/12/23 06:56:33;;;;;;;25.23;18.80;;;27.80;54.10;;;;;;1863658;76;21214;-69
2022/12/23 06:59:04;;;;;;;28.40;16.90;;;27.80;53.90;;;;;;1861902;75;21154;-69
2022/12/23 07:01:36;;;;;;;25.23;18.02;;;27.80;53.00;;;;;;1861398;75;21201;-70
2022/12/23 07:04:07;;;;;;;25.17;16.95;;;27.80;53.50;;;;;;1861457;76;21087;-70
2022/12/23 07:06:40;;;;;;;24.20;16.80;;;27.90;53.70;;;;;;1870939;75;21726;-70
2022/12/23 07:09:11;;;;;;;24.67;17.15;;;27.80;53.70;;;;;;1857923;75;21140;-70
2022/12/23 07:11:43;;;;;;;22.82;17.57;;;27.80;53.00;;;;;;1866659;76;21587;-69
2022/12/23 07:14:13;;;;;;;22.82;18.37;;;27.80;52.90;;;;;;1867945;76;21091;-71
2022/12/23 07:16:45;;;;;;;24.80;18.52;;;27.90;53.50;;;;;;1858759;75;21257;-70
2022/12/23 07:19:15;;;;;;;25.20;18.40;;;27.80;52.80;;;;;;1875166;75;21155;-69
2022/12/23 07:21:49;;;;;;;23.00;17.82;;;27.80;53.10;;;;;;1831656;76;21737;-71
2022/12/23 07:24:23;;;;;;;24.67;17.25;;;27.80;53.50;;;;;;1864683;75;21162;-73
2022/12/23 07:26:54;;;;;;;22.50;17.20;;;27.80;53.80;;;;;;1868963;75;21166;-72
2022/12/23 07:29:25;;;;;;;21.00;17.30;;;27.80;53.60;;;;;;1870757;75;21178;-73
2022/12/23 07:31:56;;;;;;;25.25;17.27;;;27.80;53.20;;;;;;1834330;76;21626;-72
2022/12/23 07:34:27;;;;;;;22.58;17.77;;;27.80;53.20;;;;;;1853005;75;21595;-71
2022/12/23 07:39:50;;;;;;;26.12;17.75;;;27.90;54.20;;;;;;1868679;75;21166;-70
2022/12/23 07:42:21;;;;;;;24.00;17.10;;;27.90;53.70;;;;;;1858234;75;21125;-72
2022/12/23 07:44:53;;;;;;;23.60;16.05;;;27.90;54.20;;;;;;1857924;75;21171;-72
2022/12/23 07:47:24;;;;;;;22.87;17.60;;;27.90;53.50;;;;;;1857363;75;21229;-72
2022/12/23 07:49:56;;;;;;;23.20;17.48;;;27.90;53.70;;;;;;1864601;75;21152;-72
2022/12/23 07:52:30;;;;;;;24.20;17.57;;;27.90;54.10;;;;;;1862640;75;21225;-72
2022/12/23 07:55:02;;;;;;;27.00;17.15;;;27.90;54.00;;;;;;1861877;75;21177;-72
2022/12/23 07:57:36;;;;;;;23.65;17.73;;;27.90;54.10;;;;;;1864909;75;21268;-70
2022/12/23 08:00:08;;;;;;;25.48;17.67;;;27.80;54.20;;;;;;1859748;75;21682;-72
2022/12/23 08:02:42;;;;;;;22.30;17.35;;;27.80;54.10;;;;;;1826076;77;21695;-72
2022/12/23 08:05:19;;;;;;;25.30;17.77;;;27.80;53.90;;;;;;1866842;75;21661;-72
2022/12/23 08:07:52;;;;;;;22.52;17.42;;;27.80;54.70;;;;;;1857399;75;21807;-72
2022/12/23 08:10:23;;;;;;;26.07;17.12;;;27.80;54.20;;;;;;1782450;78;21803;-71
2022/12/23 08:12:54;;;;;;;23.55;18.10;;;27.80;53.90;;;;;;1852146;75;21673;-73
2022/12/23 08:15:25;;;;;;;22.62;15.98;;;27.80;54.60;;;;;;1874357;75;21143;-72
2022/12/23 08:17:57;;;;;;;20.92;17.32;;;27.80;54.10;;;;;;1878992;74;21185;-72
2022/12/23 08:20:28;;;;;;;24.87;17.48;;;27.90;54.50;;;;;;1882962;74;21743;-72
2022/12/23 08:23:04;;;;;;;29.05;19.07;;;27.80;54.50;;;;;;1883608;74;21578;-70
2022/12/23 08:25:31;;;;;;;24.50;19.17;;;27.90;53.40;;;;;;1891441;74;21283;-70
2022/12/23 08:28:05;;;;;;;23.50;17.87;;;27.90;53.60;;;;;;1886724;74;21693;-69
2022/12/23 08:30:36;;;;;;;23.75;18.35;;;27.90;53.90;;;;;;1887047;74;21103;-71
2022/12/23 08:33:07;;;;;;;24.37;16.95;;;27.80;53.90;;;;;;1843169;76;21085;-71
2022/12/23 08:35:38;;;;;;;24.23;17.50;;;27.80;54.10;;;;;;1848948;76;21116;-72
2022/12/23 08:38:09;;;;;;;25.45;19.45;;;27.80;54.10;;;;;;1888775;74;21614;-71
2022/12/23 08:40:43;;;;;;;25.37;19.80;;;27.80;54.30;;;;;;1802990;78;21187;-72
2022/12/23 08:43:13;;;;;;;25.27;18.17;;;27.70;54.40;;;;;;1803152;78;21721;-70
2022/12/23 08:45:44;;;;;;;22.10;17.85;;;27.70;54.60;;;;;;1799586;77;21159;-71
2022/12/23 08:48:16;;;;;;;24.27;18.23;;;27.70;54.50;;;;;;1847912;76;21103;-71
2022/12/23 08:50:47;;;;;;;22.40;17.85;;;27.70;54.60;;;;;;1843264;76;21645;-71
2022/12/23 08:53:18;;;;;;;23.25;18.57;;;27.70;55.10;;;;;;1802660;78;21167;-71
2022/12/23 08:55:49;;;;;;;24.63;18.00;;;27.60;55.10;;;;;;1775825;79;21181;-71
2022/12/23 08:58:24;;;;;;;27.10;17.45;;;27.60;55.60;;;;;;1841019;76;21095;-70
2022/12/23 09:00:57;;;;;;;24.35;17.95;;;27.60;54.70;;;;;;1798044;78;21120;-72
2022/12/23 09:03:32;;;;;;;20.70;16.70;;;27.50;55.10;;;;;;1788564;78;21217;-69
2022/12/23 09:06:09;;;;;;;26.73;18.75;;;27.50;55.20;;;;;;1801470;77;21227;-70
2022/12/23 09:08:40;;;;;;;24.85;18.27;;;27.50;55.30;;;;;;1777018;79;21100;-70
2022/12/23 09:11:14;;;;;;;23.75;18.10;;;27.50;55.50;;;;;;1780594;79;21146;-70
2022/12/23 09:13:46;;;;;;;27.17;18.12;;;27.50;55.30;;;;;;1848513;76;21191;-70
2022/12/23 09:16:17;;;;;;;24.52;18.92;;;27.50;55.60;;;;;;1847460;76;21185;-70
2022/12/23 09:18:48;;;;;;;28.35;18.95;;;27.40;55.30;;;;;;1807653;78;21170;-69
2022/12/23 09:21:23;;;;;;;27.05;18.60;;;27.40;55.00;;;;;;1773016;79;21991;-69
2022/12/23 09:23:54;;;;;;;24.32;17.75;;;27.40;55.40;;;;;;1825165;77;21159;-69
2022/12/23 09:26:27;;;;;;;25.95;17.15;;;27.30;55.40;;;;;;1843095;76;21614;-70
2022/12/23 09:28:58;;;;;;;28.47;19.50;;;27.30;55.80;;;;;;1846507;76;21183;-70
2022/12/23 09:31:29;;;;;;;24.45;18.80;;;27.30;56.20;;;;;;1839579;76;21145;-71
2022/12/23 09:34:04;;;;;;;23.73;18.80;;;27.20;56.20;;;;;;1846352;76;21067;-70
2022/12/23 09:36:35;;;;;;;23.05;18.40;;;27.20;55.90;;;;;;1846700;76;21744;-71
2022/12/23 09:39:11;;;;;;;24.98;18.30;;;27.20;56.20;;;;;;1814922;76;21159;-70
2022/12/23 09:42:00;;;;;;;27.75;19.17;;;27.20;56.40;;;;;;1841817;76;21176;-70
2022/12/23 09:44:41;;;;;;;27.58;18.95;;;27.10;56.50;;;;;;1817524;77;21143;-70
2022/12/23 09:47:14;;;;;;;29.37;19.62;;;27.10;56.60;;;;;;1849096;76;21244;-71
2022/12/23 09:49:48;;;;;;;29.12;20.40;;;27.00;56.70;;;;;;1843198;76;21209;-72
2022/12/23 09:52:24;;;;;;;27.87;19.80;;;27.00;57.00;;;;;;1844474;76;21546;-72
2022/12/23 09:54:56;;;;;;;28.98;22.10;;;27.00;57.20;;;;;;1874951;75;21525;-70
2022/12/23 09:57:47;;;;;;;27.93;22.90;;;27.00;57.30;;;;;;1845422;76;21079;-71
2022/12/23 10:00:21;;;;;;;30.65;21.37;;;26.90;57.20;;;;;;1816836;77;21147;-70
2022/12/23 10:03:09;;;;;;;27.77;20.55;;;26.90;57.60;;;;;;1803442;78;21186;-70
2022/12/23 10:06:04;;;;;;;33.90;21.60;;;26.90;57.40;;;;;;1838263;76;21413;-69
2022/12/23 10:08:37;;;;;;;34.03;24.77;;;26.80;58.00;;;;;;1819973;77;21245;-69
2022/12/23 10:11:17;;;;;;;30.40;21.55;;;26.80;58.10;;;;;;1871046;74;21590;-69
2022/12/23 10:13:50;;;;;;;34.98;23.40;;;26.70;58.20;;;;;;1849876;75;21159;-70
2022/12/23 10:16:41;;;;;;;33.80;23.67;;;26.70;58.50;;;;;;1865600;75;21184;-71
2022/12/23 10:19:27;;;;;;;32.48;23.25;;;26.60;58.60;;;;;;1839048;76;21151;-71
2022/12/23 10:22:06;;;;;;;34.90;24.40;;;26.60;58.90;;;;;;1790900;78;21194;-70
2022/12/23 10:24:41;;;;;;;34.00;23.70;;;26.60;59.00;;;;;;1870330;75;21671;-69
2022/12/23 10:27:32;;;;;;;34.88;24.00;;;26.50;59.30;;;;;;1869847;74;21107;-70
2022/12/23 10:30:12;;;;;;;36.45;24.43;;;26.50;59.30;;;;;;1857213;76;21080;-70
2022/12/23 10:33:08;;;;;;;36.55;24.70;;;26.50;59.40;;;;;;1846343;75;21112;-70
2022/12/23 10:35:59;;;;;;;36.23;25.43;;;26.40;59.50;;;;;;1819886;77;21151;-70
2022/12/23 10:38:48;;;;;;;30.92;22.85;;;26.40;59.50;;;;;;1812954;77;21832;-70
2022/12/23 10:41:25;;;;;;;31.27;23.35;;;26.40;59.70;;;;;;1814589;77;21548;-70
2022/12/23 10:44:31;;;;;;;32.08;24.27;;;26.30;59.80;;;;;;1828232;76;21203;-69
2022/12/23 10:47:05;;;;;;;;;;;26.30;59.90;;;;;;1823670;77;21262;-73
2022/12/23 10:49:50;;;;;;;31.25;23.42;;;26.20;60.20;;;;;;1813654;77;20506;-71
2022/12/23 10:52:24;;;;;;;37.33;24.12;;;26.20;60.30;;;;;;1826507;76;21226;-71
2022/12/23 10:54:58;;;;;;;37.97;23.90;;;26.20;60.40;;;;;;1818117;77;21172;-71
2022/12/23 10:57:30;;;;;;;34.00;23.35;;;26.10;60.50;;;;;;1798026;79;21216;-71
2022/12/23 11:00:02;;;;;;;36.58;22.35;;;26.10;60.70;;;;;;1818761;77;21171;-72
2022/12/23 11:02:41;;;;;;;34.33;24.00;;;26.10;60.80;;;;;;1797106;78;21241;-71
2022/12/23 11:05:17;;;;;;;34.58;23.65;;;26.00;61.00;;;;;;1800288;78;21578;-71
2022/12/23 11:07:49;;;;;;;38.23;27.50;;;26.00;61.20;;;;;;1776339;79;21172;-71
2022/12/23 11:10:23;;;;;;;37.10;26.97;;;26.00;61.30;;;;;;1822828;77;21181;-72
2022/12/23 11:12:54;;;;;;;34.73;25.57;;;25.90;61.50;;;;;;1820134;77;21099;-70
2022/12/23 11:15:40;;;;;;;35.65;25.70;;;25.90;61.50;;;;;;1827615;77;21260;-72
2022/12/23 11:18:21;;;;;;;34.13;25.48;;;25.90;61.70;;;;;;1815501;77;21122;-72
2022/12/23 11:21:06;;;;;;;34.03;25.25;;;25.90;61.80;;;;;;1825934;77;21241;-71
2022/12/23 11:23:37;;;;;;;36.75;25.88;;;25.80;61.80;;;;;;1822148;77;21150;-71
2022/12/23 11:26:17;;;;;;;38.33;26.87;;;25.80;62.00;;;;;;1823722;77;21151;-71
2022/12/23 11:28:51;;;;;;;37.13;26.80;;;25.80;62.00;;;;;;1838499;77;21087;-71
2022/12/23 11:31:42;;;;;;;40.33;29.25;;;25.70;62.20;;;;;;1820523;77;21767;-71
2022/12/23 11:34:19;;;;;;;40.25;28.70;;;25.70;62.30;;;;;;1823999;77;21148;-71
2022/12/23 11:36:56;;;;;;;;;;;25.70;62.40;;;;;;1822304;78;21142;-71
2022/12/23 11:39:35;;;;;;;42.30;29.55;;;25.70;62.50;;;;;;1838449;77;20238;-71
2022/12/23 11:42:17;;;;;;;42.03;29.80;;;25.60;62.70;;;;;;1810730;77;21169;-71
2022/12/23 11:44:50;;;;;;;35.58;27.87;;;25.60;62.80;;;;;;1792893;78;21297;-71
2022/12/23 11:47:30;;;;;;;41.80;30.17;;;25.60;63.00;;;;;;1788668;78;21225;-71
2022/12/23 11:50:04;;;;;;;41.55;28.87;;;25.60;63.20;;;;;;1786320;79;21145;-70
2022/12/23 11:52:36;;;;;;;40.23;28.52;;;25.60;63.30;;;;;;1783074;79;21107;-71
2022/12/23 11:55:09;;;;;;;38.25;28.50;;;25.50;63.40;;;;;;1784912;79;21486;-71
2022/12/23 11:57:46;;;;;;;42.15;28.20;;;25.50;63.40;;;;;;1781609;78;21723;-71
2022/12/23 12:00:22;;;;;;;43.78;29.35;;;25.50;63.60;;;;;;1785215;79;21151;-71
2022/12/23 12:02:58;;;;;;;44.83;29.55;;;25.50;63.70;;;;;;1781321;79;21646;-72
2022/12/23 12:05:39;;;;;;;44.80;29.42;;;25.50;64.00;;;;;;1936418;72;21190;-72
2022/12/23 12:08:15;;;;;;;;;;;25.40;64.10;;;;;;1950480;73;21195;-72
2022/12/23 12:10:46;;;;;;;41.43;29.70;;;25.40;64.10;;;;;;1950340;72;20175;-71
2022/12/23 12:13:25;;;;;;;37.30;28.00;;;25.40;64.20;;;;;;1951604;72;21144;-71
2022/12/23 12:16:07;;;;;;;43.78;28.40;;;25.40;64.50;;;;;;1943482;72;21133;-71
2022/12/23 12:18:40;;;;;;;38.88;28.52;;;25.30;64.50;;;;;;1947079;72;21120;-72
2022/12/23 12:21:13;;;;;;;37.73;27.65;;;25.30;64.60;;;;;;1953165;72;21581;-71
2022/12/23 12:23:49;;;;;;;38.35;28.23;;;25.30;64.80;;;;;;1940840;72;21117;-72
2022/12/23 12:26:27;;;;;;;40.28;28.65;;;25.30;64.90;;;;;;1944619;72;21509;-71
2022/12/23 12:29:16;;;;;;;38.63;29.50;;;25.30;65.20;;;;;;1912821;73;21242;-72
2022/12/23 12:31:52;;;;;;;42.03;28.83;;;25.30;65.30;;;;;;1915269;73;21120;-71
2022/12/23 12:34:45;;;;;;;42.90;29.48;;;25.20;65.40;;;;;;1918956;73;21129;-71
2022/12/23 12:37:24;;;;;;;40.52;28.50;;;25.30;65.60;;;;;;1920051;73;21136;-70
2022/12/23 12:40:15;;;;;;;42.33;29.42;;;25.20;65.60;;;;;;1922523;73;21604;-70
2022/12/23 12:43:01;;;;;;;41.63;30.02;;;25.20;65.80;;;;;;1910332;73;21073;-70
2022/12/23 12:45:33;;;;;;;;;;;25.10;65.70;;;;;;1924009;73;21581;-70
2022/12/23 12:48:25;;;;;;;47.33;31.80;;;25.10;65.70;;;;;;1913880;73;20224;-70
2022/12/23 12:51:01;;;;;;;40.63;29.52;;;25.10;66.00;;;;;;1916143;73;21141;-70
2022/12/23 12:53:33;;;;;;;40.27;28.47;;;25.10;66.00;;;;;;1912167;73;21278;-71
2022/12/23 12:56:07;;;;;;;38.95;29.65;;;25.10;66.00;;;;;;1916641;73;21128;-72
2022/12/23 12:58:41;;;;;;;40.48;29.23;;;25.10;66.20;;;;;;1917339;73;21070;-72
2022/12/23 13:01:27;;;;;;;38.83;29.87;;;25.10;65.90;;;;;;1912312;73;21841;-73
2022/12/23 13:04:31;;;;;;;39.55;29.35;;;25.00;65.90;;;;;;1925682;73;21163;-72
2022/12/23 13:07:17;;;;;;;39.38;30.08;;;25.00;65.90;;;;;;1930006;73;21334;-68
2022/12/23 13:09:54;;;;;;;39.03;30.20;;;25.00;65.60;;;;;;1943515;72;21611;-71
2022/12/23 13:12:47;;;;;;;44.60;31.95;;;25.00;65.50;;;;;;1946314;73;21176;-71
2022/12/23 13:15:43;;;;;;;43.80;32.63;;;25.00;65.50;;;;;;1943163;72;21154;-73
2022/12/23 13:18:22;;;;;;;47.83;33.43;;;24.90;65.50;;;;;;1948218;73;21195;-70
2022/12/23 13:21:08;;;;;;;48.20;33.53;;;24.90;65.60;;;;;;1909823;74;21121;-70
2022/12/23 13:24:06;;;;;;;51.35;33.75;;;24.90;65.70;;;;;;1901310;74;21181;-70
2022/12/23 13:26:45;;;;;;;43.20;33.98;;;24.90;65.80;;;;;;1842798;76;21137;-70
2022/12/23 13:29:51;;;;;;;52.93;34.70;;;24.80;65.90;;;;;;1854480;76;22084;-70
2022/12/23 13:36:10;;;;;;;51.53;35.75;;;24.80;66.30;;;;;;1882752;74;21576;-70
2022/12/23 13:38:50;;;;;;;46.98;35.40;;;24.70;66.20;;;;;;1886926;74;21468;-70
2022/12/23 13:41:41;;;;;;;51.60;35.95;;;24.70;66.50;;;;;;1887043;74;21548;-71
2022/12/23 13:44:14;;;;;;;53.98;35.15;;;24.60;66.60;;;;;;1882037;74;21134;-70
2022/12/23 13:47:05;;;;;;;50.48;35.00;;;24.60;66.60;;;;;;1889875;74;21157;-69
2022/12/23 13:49:50;;;;;;;51.08;34.73;;;24.60;66.70;;;;;;1882859;74;21753;-71
2022/12/23 13:52:58;;;;;;;57.13;37.50;;;24.50;66.70;;;;;;1883921;74;21122;-70